createdAt,value
2022-11-29T00:00:26.776Z,40.20
2022-11-29T00:05:46.988Z,40.20
2022-11-29T00:11:07.195Z,40.30
2022-11-29T00:16:27.340Z,40.30
2022-11-29T00:21:48.396Z,40.30
2022-11-29T00:27:08.353Z,40.20
2022-11-29T00:32:28.487Z,40.20
2022-11-29T00:37:48.541Z,40.20
2022-11-29T00:43:08.668Z,40.30
2022-11-29T00:48:28.741Z,40.30
2022-11-29T00:53:48.904Z,40.20
2022-11-29T00:59:08.959Z,40.30
2022-11-29T01:04:29.245Z,40.30
2022-11-29T01:09:49.573Z,40.20
2022-11-29T01:15:09.590Z,40.30
2022-11-29T01:20:29.801Z,40.30
2022-11-29T01:25:49.989Z,40.30
2022-11-29T01:31:10.141Z,40.30
2022-11-29T01:36:30.170Z,40.20
2022-11-29T01:41:50.472Z,40.20
2022-11-29T01:47:10.511Z,40.20
2022-11-29T01:52:30.670Z,40.20
2022-11-29T01:57:50.813Z,40.30
2022-11-29T02:03:11.186Z,40.20
2022-11-29T02:08:31.212Z,40.20
2022-11-29T02:13:51.357Z,40.20
2022-11-29T02:19:11.431Z,40.30
2022-11-29T02:24:31.677Z,40.30
2022-11-29T02:29:51.715Z,40.30
2022-11-29T02:35:11.851Z,40.30
2022-11-29T02:40:31.932Z,40.30
2022-11-29T02:45:52.204Z,40.40
2022-11-29T02:51:12.129Z,40.30
2022-11-29T02:56:32.336Z,40.30
2022-11-29T03:01:52.450Z,40.30
2022-11-29T03:07:12.595Z,40.30
2022-11-29T03:12:32.727Z,40.30
2022-11-29T03:17:52.786Z,40.30
2022-11-29T03:23:12.891Z,40.30
2022-11-29T03:28:33.050Z,40.30
2022-11-29T03:33:53.006Z,40.30
2022-11-29T03:39:13.187Z,40.30
2022-11-29T03:44:33.322Z,40.30
2022-11-29T03:49:53.374Z,40.30
2022-11-29T03:55:13.432Z,40.30
2022-11-29T04:00:33.647Z,40.40
2022-11-29T04:05:53.901Z,40.30
2022-11-29T04:11:14.000Z,40.30
2022-11-29T04:16:34.071Z,40.30
2022-11-29T04:21:54.291Z,40.40
2022-11-29T04:27:14.561Z,40.40
2022-11-29T04:32:34.441Z,40.40
2022-11-29T04:37:54.544Z,40.40
2022-11-29T04:43:14.666Z,40.40
2022-11-29T04:48:34.862Z,40.40
2022-11-29T04:53:55.037Z,40.40
2022-11-29T04:59:15.289Z,40.40
2022-11-29T05:04:35.604Z,40.40
2022-11-29T05:09:55.635Z,40.50
2022-11-29T05:15:15.735Z,40.40
2022-11-29T05:20:35.938Z,40.40
2022-11-29T05:25:56.052Z,40.40
2022-11-29T05:31:16.267Z,40.40
2022-11-29T05:36:36.403Z,40.40
2022-11-29T05:41:56.514Z,40.40
2022-11-29T05:47:16.631Z,40.40
2022-11-29T05:52:36.837Z,40.40
2022-11-29T05:57:56.995Z,40.40
2022-11-29T06:03:17.226Z,40.40
2022-11-29T06:08:37.279Z,40.40
2022-11-29T06:13:57.419Z,40.40
2022-11-29T06:19:17.471Z,40.40
2022-11-29T06:24:37.702Z,40.40
2022-11-29T06:29:57.842Z,40.50
2022-11-29T06:35:18.047Z,40.50
2022-11-29T06:40:38.022Z,40.50
2022-11-29T06:45:58.109Z,40.50
2022-11-29T06:51:18.290Z,40.50
2022-11-29T06:56:40.777Z,40.50
2022-11-29T07:02:01.266Z,40.50
2022-11-29T07:07:21.420Z,40.50
2022-11-29T07:12:41.475Z,40.50
2022-11-29T07:18:01.469Z,40.50
2022-11-29T07:23:21.523Z,40.50
2022-11-29T07:28:41.720Z,40.50
2022-11-29T07:34:01.849Z,40.50
2022-11-29T07:39:21.986Z,40.50
2022-11-29T07:44:42.100Z,40.50
2022-11-29T07:50:02.453Z,40.50
2022-11-29T07:55:22.641Z,40.50
2022-11-29T08:00:43.034Z,40.50
2022-11-29T08:06:03.147Z,40.50
2022-11-29T08:11:23.196Z,40.50
2022-11-29T08:16:43.332Z,40.50
2022-11-29T08:22:03.506Z,40.50
2022-11-29T08:27:23.621Z,40.50
2022-11-29T08:32:49.939Z,40.50
2022-11-29T08:38:11.217Z,40.50
2022-11-29T08:43:31.221Z,40.50
2022-11-29T08:48:51.510Z,40.50
2022-11-29T08:54:11.689Z,40.50
2022-11-29T08:59:31.912Z,40.50
2022-11-29T09:04:52.044Z,40.60
2022-11-29T09:10:12.222Z,40.60
2022-11-29T09:15:32.374Z,40.60
2022-11-29T09:20:52.468Z,40.50
2022-11-29T09:26:12.541Z,40.50
2022-11-29T09:31:32.756Z,40.50
2022-11-29T09:36:52.835Z,40.60
2022-11-29T09:42:13.159Z,40.50
2022-11-29T09:47:33.237Z,40.50
2022-11-29T09:52:53.483Z,40.60
2022-11-29T09:58:13.518Z,40.60
2022-11-29T10:09:17.989Z,40.50
2022-11-29T10:14:38.029Z,40.60
2022-11-29T10:19:58.242Z,40.60
2022-11-29T10:25:18.403Z,40.60
2022-11-29T10:30:38.665Z,40.50
2022-11-29T10:35:58.739Z,40.60
2022-11-29T10:41:18.907Z,40.60
2022-11-29T10:46:38.935Z,40.50
2022-11-29T10:51:59.039Z,40.60
2022-11-29T10:57:19.119Z,40.60
2022-11-29T11:02:39.496Z,40.90
2022-11-29T11:07:59.608Z,41.10
2022-11-29T11:13:19.812Z,41.30
2022-11-29T11:18:39.962Z,41.70
2022-11-29T11:24:00.031Z,41.80
2022-11-29T11:29:20.067Z,41.60
2022-11-29T11:34:40.195Z,41.20
2022-11-29T11:40:00.403Z,41.40
2022-11-29T11:45:20.479Z,41.10
2022-11-29T11:50:40.615Z,41.20
2022-11-29T11:56:00.817Z,41.60
2022-11-29T12:01:20.963Z,41.70
2022-11-29T12:06:41.197Z,41.00
2022-11-29T12:12:01.668Z,40.90
2022-11-29T12:17:21.683Z,40.80
2022-11-29T12:22:46.702Z,40.80
2022-11-29T12:28:08.665Z,40.80
2022-11-29T12:33:28.831Z,40.80
2022-11-29T12:38:48.975Z,41.10
2022-11-29T12:44:08.944Z,41.60
2022-11-29T12:49:29.086Z,42.20
2022-11-29T12:54:49.223Z,42.30
2022-11-29T13:00:09.378Z,42.20
2022-11-29T13:05:29.417Z,41.40
2022-11-29T13:10:49.553Z,41.90
2022-11-29T13:16:09.829Z,41.70
2022-11-29T13:21:29.949Z,41.30
2022-11-29T13:26:50.134Z,40.90
2022-11-29T13:32:14.503Z,40.80
2022-11-29T13:37:34.473Z,40.80
2022-11-29T13:42:54.837Z,40.80
2022-11-29T13:48:15.059Z,40.80
2022-11-29T13:53:35.268Z,40.90
2022-11-29T13:58:55.384Z,40.90
2022-11-29T14:04:15.425Z,40.90
2022-11-29T14:09:35.548Z,40.80
2022-11-29T14:14:55.635Z,40.80
2022-11-29T14:20:15.822Z,40.80
2022-11-29T14:25:51.024Z,40.80
2022-11-29T14:31:12.290Z,40.80
2022-11-29T14:36:32.283Z,40.80
2022-11-29T14:41:52.361Z,40.80
2022-11-29T14:47:12.579Z,40.90
2022-11-29T14:52:32.652Z,41.00
2022-11-29T14:57:52.792Z,41.10
2022-11-29T15:03:12.900Z,41.00
2022-11-29T15:08:33.085Z,41.00
2022-11-29T15:13:53.282Z,41.00
2022-11-29T15:19:13.409Z,41.00
2022-11-29T15:24:33.468Z,41.00
2022-11-29T15:29:53.591Z,41.00
2022-11-29T15:35:13.637Z,41.00
2022-11-29T15:40:33.881Z,41.00
2022-11-29T15:45:53.937Z,41.00
2022-11-29T15:51:14.136Z,41.00
2022-11-29T15:56:34.463Z,41.00
2022-11-29T16:01:54.837Z,41.00
2022-11-29T16:07:14.931Z,41.00
2022-11-29T16:12:35.097Z,41.00
2022-11-29T16:17:55.111Z,41.10
2022-11-29T16:23:15.279Z,41.00
2022-11-29T16:28:35.318Z,41.10
2022-11-29T16:33:55.547Z,41.10
2022-11-29T16:39:15.673Z,41.10
2022-11-29T16:44:36.040Z,41.00
2022-11-29T16:49:56.053Z,41.10
2022-11-29T16:55:16.285Z,41.10
2022-11-29T17:00:36.442Z,41.10
2022-11-29T17:05:56.683Z,41.10
2022-11-29T17:11:16.839Z,41.10
2022-11-29T17:16:37.093Z,41.20
2022-11-29T17:21:57.228Z,41.20
2022-11-29T17:27:17.608Z,41.20
2022-11-29T17:32:37.757Z,41.20
2022-11-29T17:37:58.070Z,41.10
2022-11-29T17:43:18.228Z,41.10
2022-11-29T17:48:38.473Z,41.10
2022-11-29T17:53:58.719Z,41.10
2022-11-29T17:59:18.878Z,41.10
2022-11-29T18:04:39.080Z,41.10
2022-11-29T18:09:59.318Z,41.10
2022-11-29T18:15:19.397Z,41.10
2022-11-29T18:20:39.558Z,41.20
2022-11-29T18:25:59.610Z,41.20
2022-11-29T18:31:19.995Z,41.40
2022-11-29T18:36:40.175Z,41.50
2022-11-29T18:42:00.288Z,41.30
2022-11-29T18:47:20.423Z,41.30
2022-11-29T18:52:40.972Z,41.30
2022-11-29T18:58:00.878Z,41.30
2022-11-29T19:03:21.001Z,41.20
2022-11-29T19:08:41.072Z,41.20
2022-11-29T19:14:01.178Z,41.20
2022-11-29T19:19:21.134Z,41.20
2022-11-29T19:24:41.258Z,41.20
2022-11-29T19:30:01.450Z,41.20
2022-11-29T19:35:21.644Z,41.20
2022-11-29T19:40:41.895Z,41.20
2022-11-29T19:46:01.921Z,41.20
2022-11-29T19:51:22.005Z,41.20
2022-11-29T19:56:42.092Z,41.20
2022-11-29T20:02:02.553Z,41.10
2022-11-29T20:07:22.844Z,41.10
2022-11-29T20:12:42.970Z,41.10
2022-11-29T20:18:02.925Z,41.10
2022-11-29T20:23:23.142Z,41.20
2022-11-29T20:28:43.197Z,41.20
2022-11-29T20:34:03.353Z,41.20
2022-11-29T20:39:23.583Z,41.20
2022-11-29T20:44:43.902Z,41.20
2022-11-29T20:50:04.041Z,41.20
2022-11-29T20:55:24.173Z,41.20
2022-11-29T21:00:47.267Z,41.20
2022-11-29T21:06:07.313Z,41.20
2022-11-29T21:11:27.395Z,41.20
2022-11-29T21:16:47.522Z,41.20
2022-11-29T21:22:07.600Z,41.20
2022-11-29T21:27:27.780Z,41.20
2022-11-29T21:32:47.805Z,41.20
2022-11-29T21:38:07.899Z,41.20
2022-11-29T21:43:57.956Z,41.20
2022-11-29T21:49:07.802Z,41.20
2022-11-29T21:54:27.925Z,41.20
2022-11-29T21:59:47.964Z,41.20
2022-11-29T22:05:08.180Z,41.20
2022-11-29T22:10:28.330Z,41.20
2022-11-29T22:15:48.620Z,41.20
2022-11-29T22:21:08.605Z,41.20
2022-11-29T22:26:28.832Z,41.20
2022-11-29T22:31:49.068Z,41.20
2022-11-29T22:37:09.276Z,41.20
2022-11-29T22:42:29.383Z,41.20
2022-11-29T22:47:49.668Z,41.20
2022-11-29T22:53:09.717Z,41.10
2022-11-29T22:58:29.961Z,41.20
2022-11-29T23:03:50.416Z,41.20
2022-11-29T23:09:10.474Z,41.20
2022-11-29T23:14:30.606Z,41.10
2022-11-29T23:19:50.866Z,41.10
2022-11-29T23:25:10.896Z,41.10
2022-11-29T23:30:31.027Z,41.10
2022-11-29T23:35:51.126Z,41.10
2022-11-29T23:41:11.271Z,41.10
2022-11-29T23:46:31.506Z,41.10
2022-11-29T23:51:51.626Z,41.10
2022-11-29T23:57:11.781Z,41.10
